KSAA/SAA METAR and TAF weather

Enter ICAO airport designator
Station Type Date Time Source
KSAA METAR 2022/05/26 04:55 UTC NOAA

KSAA 260455Z AUTO 00000KT 10SM CLR 07/M01 A3013 RMK AO2


Station Type Date Time Source
KSAA Decoded METAR 2022/05/26 04:55 UTC NOAA

Station name not available
May 26, 2022 - 12:55 AM EDT / 2022.05.26 0455 UTC
Wind: Calm:0
Visibility: 10 mile(s):0
Sky conditions: clear
Temperature: 44 F (7 C)
Dew Point: 30 F (-1 C)
Relative Humidity: 56%
Pressure (altimeter): 30.13 in. Hg (1020 hPa)
ob: KSAA 260455Z AUTO 00000KT 10SM CLR 07/M01 A3013 RMK AO2
cycle: 5

Station Type Date Time Source
KSAA TAF UTC NOAA

Error!

Example: see airport list